createdAt,value
2022-10-26T00:00:02.279Z,10.31
2022-10-26T00:00:12.288Z,10.31
2022-10-26T00:00:22.170Z,10.29
2022-10-26T00:00:32.242Z,10.31
2022-10-26T00:00:42.221Z,10.29
2022-10-26T00:00:52.179Z,10.29
2022-10-26T00:01:02.250Z,10.29
2022-10-26T00:01:12.243Z,10.28
2022-10-26T00:01:22.398Z,10.29
2022-10-26T00:01:32.422Z,10.28
2022-10-26T00:01:42.395Z,10.28
2022-10-26T00:01:52.292Z,10.28
2022-10-26T00:02:02.344Z,10.29
2022-10-26T00:02:12.373Z,10.28
2022-10-26T00:02:22.371Z,10.28
2022-10-26T00:02:32.302Z,10.28
2022-10-26T00:02:42.262Z,10.28
2022-10-26T00:02:52.730Z,10.28
2022-10-26T00:03:02.192Z,10.26
2022-10-26T00:03:12.215Z,10.28
2022-10-26T00:03:22.273Z,10.26
2022-10-26T00:03:32.189Z,10.28
2022-10-26T00:03:42.294Z,10.26
2022-10-26T00:03:52.180Z,10.26
2022-10-26T00:04:02.297Z,10.28
2022-10-26T00:04:12.183Z,10.28
2022-10-26T00:04:22.264Z,10.31
2022-10-26T00:04:32.271Z,10.28
2022-10-26T00:04:42.302Z,10.26
2022-10-26T00:04:52.217Z,10.26
2022-10-26T00:05:02.212Z,10.29
2022-10-26T00:05:12.218Z,10.29
2022-10-26T00:05:22.280Z,10.25
2022-10-26T00:05:32.183Z,10.26
2022-10-26T00:05:42.262Z,10.28
2022-10-26T00:05:52.256Z,10.26
2022-10-26T00:06:02.230Z,10.28
2022-10-26T00:06:12.224Z,10.26
2022-10-26T00:06:22.238Z,10.28
2022-10-26T00:06:32.261Z,10.26
2022-10-26T00:06:42.286Z,10.24
2022-10-26T00:06:52.308Z,10.25
2022-10-26T00:07:02.215Z,10.24
2022-10-26T00:07:12.197Z,10.25
2022-10-26T00:07:22.210Z,10.24
2022-10-26T00:07:32.219Z,10.24
2022-10-26T00:07:42.280Z,10.24
2022-10-26T00:07:52.273Z,10.22
2022-10-26T00:08:02.264Z,10.22
2022-10-26T00:08:12.193Z,10.20
2022-10-26T00:08:22.232Z,10.20
2022-10-26T00:08:32.263Z,10.18
2022-10-26T00:08:42.259Z,10.18
2022-10-26T00:08:52.219Z,10.18
2022-10-26T00:09:02.267Z,10.17
2022-10-26T00:09:12.288Z,10.16
2022-10-26T00:09:22.231Z,10.17
2022-10-26T00:09:32.259Z,10.16
2022-10-26T00:09:42.182Z,10.14
2022-10-26T00:09:52.239Z,10.14
2022-10-26T00:10:02.212Z,10.16
2022-10-26T00:10:12.257Z,10.16
2022-10-26T00:10:22.169Z,10.16
2022-10-26T00:10:32.171Z,10.16
2022-10-26T00:10:42.184Z,10.16
2022-10-26T00:10:52.279Z,10.16
2022-10-26T00:11:02.297Z,10.14
2022-10-26T00:11:12.198Z,10.14
2022-10-26T00:11:22.298Z,10.14
2022-10-26T00:11:32.266Z,10.14
2022-10-26T00:11:42.219Z,10.13
2022-10-26T00:11:52.244Z,10.11
2022-10-26T00:12:02.359Z,10.11
2022-10-26T00:12:12.180Z,10.11
2022-10-26T00:12:22.196Z,10.11
2022-10-26T00:12:32.270Z,10.11
2022-10-26T00:12:42.304Z,10.10
2022-10-26T00:12:52.287Z,10.11
2022-10-26T00:13:02.282Z,10.10
2022-10-26T00:13:12.228Z,10.09
2022-10-26T00:13:22.273Z,10.09
2022-10-26T00:13:32.292Z,10.07
2022-10-26T00:13:42.282Z,10.09
2022-10-26T00:13:52.278Z,10.06
2022-10-26T00:14:02.191Z,10.07
2022-10-26T00:14:12.258Z,10.06
2022-10-26T00:14:22.177Z,10.06
2022-10-26T00:14:32.259Z,10.07
2022-10-26T00:14:42.284Z,10.07
2022-10-26T00:14:52.274Z,10.06
2022-10-26T00:15:02.192Z,10.06
2022-10-26T00:15:12.226Z,10.07
2022-10-26T00:15:22.246Z,10.06
2022-10-26T00:15:32.199Z,10.06
2022-10-26T00:15:42.273Z,10.06
2022-10-26T00:15:52.226Z,10.06
2022-10-26T00:16:02.285Z,10.06
2022-10-26T00:16:12.297Z,10.06
2022-10-26T00:16:22.277Z,10.04
2022-10-26T00:16:32.268Z,10.04
2022-10-26T00:16:42.264Z,10.04
2022-10-26T00:16:52.277Z,10.04
2022-10-26T00:17:02.245Z,10.04
2022-10-26T00:17:12.217Z,10.02
2022-10-26T00:17:22.204Z,10.04
2022-10-26T00:17:32.236Z,10.04
2022-10-26T00:17:42.214Z,10.06
2022-10-26T00:17:52.315Z,10.04
2022-10-26T00:18:02.208Z,10.02
2022-10-26T00:18:12.284Z,10.04
2022-10-26T00:18:22.167Z,10.04
2022-10-26T00:18:32.254Z,10.06
2022-10-26T00:18:42.191Z,10.01
2022-10-26T00:18:52.286Z,10.04
2022-10-26T00:19:02.214Z,10.02
2022-10-26T00:19:12.290Z,10.02
2022-10-26T00:19:22.253Z,10.01
2022-10-26T00:19:32.189Z,10.01
2022-10-26T00:19:42.221Z,9.99
2022-10-26T00:19:52.245Z,9.96
2022-10-26T00:20:02.225Z,9.99
2022-10-26T00:20:12.191Z,9.98
2022-10-26T00:20:22.240Z,9.98
2022-10-26T00:20:32.201Z,9.98
2022-10-26T00:20:42.242Z,9.96
2022-10-26T00:20:52.185Z,9.98
2022-10-26T00:21:02.307Z,9.96
2022-10-26T00:21:12.328Z,9.96
2022-10-26T00:21:22.245Z,9.96
2022-10-26T00:21:32.183Z,9.93
2022-10-26T00:21:42.182Z,9.93
2022-10-26T00:21:52.249Z,9.93
2022-10-26T00:22:02.273Z,9.92
2022-10-26T00:22:12.181Z,9.92
2022-10-26T00:22:22.229Z,9.91
2022-10-26T00:22:32.237Z,9.91
2022-10-26T00:22:42.281Z,9.91
2022-10-26T00:22:52.191Z,9.89
2022-10-26T00:23:02.261Z,9.89
2022-10-26T00:23:12.279Z,9.88
2022-10-26T00:23:22.300Z,9.88
2022-10-26T00:23:32.254Z,9.86
2022-10-26T00:23:42.196Z,9.86
2022-10-26T00:23:52.213Z,9.88
2022-10-26T00:24:02.244Z,9.88
2022-10-26T00:24:12.236Z,9.88
2022-10-26T00:24:22.253Z,9.85
2022-10-26T00:24:32.266Z,9.85
2022-10-26T00:24:42.256Z,9.85
2022-10-26T00:24:52.303Z,9.83
2022-10-26T00:25:02.209Z,9.83
2022-10-26T00:25:12.265Z,9.83
2022-10-26T00:25:22.206Z,9.83
2022-10-26T00:25:32.264Z,9.81
2022-10-26T00:25:42.293Z,9.81
2022-10-26T00:25:52.310Z,9.83
2022-10-26T00:26:02.299Z,9.81
2022-10-26T00:26:12.242Z,9.81
2022-10-26T00:26:22.269Z,9.80
2022-10-26T00:26:32.292Z,9.80
2022-10-26T00:26:42.249Z,9.80
2022-10-26T00:26:52.285Z,9.77
2022-10-26T00:27:02.227Z,9.75
2022-10-26T00:27:12.225Z,9.77
2022-10-26T00:27:22.272Z,9.75
2022-10-26T00:27:32.188Z,9.75
2022-10-26T00:27:42.240Z,9.75
2022-10-26T00:27:52.311Z,9.75
2022-10-26T00:28:02.261Z,9.75
2022-10-26T00:28:12.195Z,9.74
2022-10-26T00:28:22.285Z,9.74
2022-10-26T00:28:32.182Z,9.74
2022-10-26T00:28:42.233Z,9.73
2022-10-26T00:28:52.293Z,9.74
2022-10-26T00:29:02.208Z,9.74
2022-10-26T00:29:12.211Z,9.73
2022-10-26T00:29:22.178Z,9.73
2022-10-26T00:29:32.183Z,9.73
2022-10-26T00:29:42.218Z,9.73
2022-10-26T00:29:52.266Z,9.71
2022-10-26T00:30:02.249Z,9.73
2022-10-26T00:30:12.259Z,9.73
2022-10-26T00:30:22.301Z,9.71
2022-10-26T00:30:32.252Z,9.73
2022-10-26T00:30:42.204Z,9.71
2022-10-26T00:30:52.237Z,9.71
2022-10-26T00:31:02.187Z,9.71
2022-10-26T00:31:12.234Z,9.71
2022-10-26T00:31:22.275Z,9.71
2022-10-26T00:31:32.263Z,9.68
2022-10-26T00:31:42.282Z,9.68
2022-10-26T00:31:52.293Z,9.67
2022-10-26T00:32:02.204Z,9.68
2022-10-26T00:32:12.202Z,9.67
2022-10-26T00:32:22.270Z,9.67
2022-10-26T00:32:32.353Z,9.67
2022-10-26T00:32:42.177Z,9.65
2022-10-26T00:32:52.235Z,9.63
2022-10-26T00:33:02.185Z,9.63
2022-10-26T00:33:12.248Z,9.67
2022-10-26T00:33:22.293Z,9.63
2022-10-26T00:33:32.231Z,9.63
2022-10-26T00:33:42.211Z,9.62
2022-10-26T00:33:52.263Z,9.60
2022-10-26T00:34:02.292Z,9.63
2022-10-26T00:34:12.195Z,9.60
2022-10-26T00:34:22.303Z,9.60
2022-10-26T00:34:32.278Z,9.60
2022-10-26T00:34:42.243Z,9.60
2022-10-26T00:34:52.256Z,9.59
2022-10-26T00:35:10.611Z,9.60
2022-10-26T00:35:22.966Z,9.58
2022-10-26T00:35:23.888Z,9.58
2022-10-26T00:35:45.179Z,9.59
2022-10-26T00:35:45.898Z,9.59
2022-10-26T00:35:52.192Z,9.58
2022-10-26T00:36:02.251Z,9.59
2022-10-26T00:36:12.272Z,9.58
2022-10-26T00:36:22.272Z,9.58
2022-10-26T00:36:32.278Z,9.56
2022-10-26T00:36:42.178Z,9.56
2022-10-26T00:36:52.192Z,9.56
2022-10-26T00:37:02.304Z,9.58
2022-10-26T00:37:12.246Z,9.56
2022-10-26T00:37:22.298Z,9.56
2022-10-26T00:37:32.281Z,9.60
2022-10-26T00:37:42.248Z,9.56
2022-10-26T00:37:52.247Z,9.55
2022-10-26T00:38:02.256Z,9.55
2022-10-26T00:38:12.251Z,9.55
2022-10-26T00:38:22.294Z,9.52
2022-10-26T00:38:32.181Z,9.55
2022-10-26T00:38:42.272Z,9.53
2022-10-26T00:38:52.180Z,9.53
2022-10-26T00:39:02.213Z,9.53
2022-10-26T00:39:12.237Z,9.53
2022-10-26T00:39:22.246Z,9.55
2022-10-26T00:39:32.206Z,9.55
2022-10-26T00:39:42.296Z,9.53
2022-10-26T00:39:52.193Z,9.53
2022-10-26T00:40:02.192Z,9.53
2022-10-26T00:40:12.283Z,9.53
2022-10-26T00:40:22.296Z,9.53
2022-10-26T00:40:32.224Z,9.53
2022-10-26T00:40:42.251Z,9.53
2022-10-26T00:40:52.350Z,9.53
2022-10-26T00:41:02.264Z,9.53
2022-10-26T00:41:12.197Z,9.52
2022-10-26T00:41:22.304Z,9.53
2022-10-26T00:41:32.305Z,9.52
2022-10-26T00:41:42.199Z,9.52
2022-10-26T00:41:52.283Z,9.53
2022-10-26T00:42:02.267Z,9.52
2022-10-26T00:42:12.288Z,9.53
2022-10-26T00:42:22.266Z,9.52
2022-10-26T00:42:32.201Z,9.52
2022-10-26T00:42:42.178Z,9.53
2022-10-26T00:42:52.411Z,9.52
2022-10-26T00:43:02.207Z,9.52
2022-10-26T00:43:12.296Z,9.50
2022-10-26T00:43:22.302Z,9.50
2022-10-26T00:43:32.315Z,9.53
2022-10-26T00:43:42.181Z,9.52
2022-10-26T00:43:52.267Z,9.53
2022-10-26T00:44:02.278Z,9.52
2022-10-26T00:44:12.232Z,9.53
2022-10-26T00:44:22.242Z,9.53
2022-10-26T00:44:36.106Z,9.53
2022-10-26T00:44:42.242Z,9.53
2022-10-26T00:44:52.171Z,9.55
2022-10-26T00:45:02.270Z,9.55
2022-10-26T00:45:12.191Z,9.53
2022-10-26T00:45:22.240Z,9.56
2022-10-26T00:45:32.284Z,9.55
2022-10-26T00:45:42.194Z,9.56
2022-10-26T00:45:52.224Z,9.58
2022-10-26T00:46:02.174Z,9.56
2022-10-26T00:46:12.173Z,9.56
2022-10-26T00:46:22.211Z,9.56
2022-10-26T00:46:32.265Z,9.58
2022-10-26T00:46:42.182Z,9.59
2022-10-26T00:46:52.214Z,9.59
2022-10-26T00:47:02.190Z,9.59
2022-10-26T00:47:12.189Z,9.60
2022-10-26T00:47:22.300Z,9.59
2022-10-26T00:47:32.179Z,9.60
2022-10-26T00:47:42.179Z,9.62
2022-10-26T00:47:52.300Z,9.63
2022-10-26T00:48:02.265Z,9.63
2022-10-26T00:48:12.176Z,9.65
2022-10-26T00:48:22.273Z,9.65
2022-10-26T00:48:32.275Z,9.67
2022-10-26T00:48:42.258Z,9.67
2022-10-26T00:48:52.224Z,9.68
2022-10-26T00:49:02.235Z,9.70
2022-10-26T00:49:12.341Z,9.71
2022-10-26T00:49:22.318Z,9.73
2022-10-26T00:49:32.240Z,9.73
2022-10-26T00:49:42.291Z,9.75
2022-10-26T00:49:52.289Z,9.77
2022-10-26T00:50:02.252Z,9.78
2022-10-26T00:50:12.178Z,9.80
2022-10-26T00:50:22.264Z,9.83
2022-10-26T00:50:32.285Z,9.85
2022-10-26T00:50:42.326Z,9.89
2022-10-26T00:50:52.266Z,9.92
2022-10-26T00:51:02.288Z,9.93
2022-10-26T00:51:12.174Z,9.98
2022-10-26T00:51:22.281Z,9.99
2022-10-26T00:51:32.246Z,10.06
2022-10-26T00:51:42.277Z,10.07
2022-10-26T00:51:52.304Z,10.09
2022-10-26T00:52:02.190Z,10.11
2022-10-26T00:52:12.271Z,10.13
2022-10-26T00:52:22.223Z,10.16
2022-10-26T00:52:32.246Z,10.17
2022-10-26T00:52:42.230Z,10.18
2022-10-26T00:52:52.278Z,10.20
2022-10-26T00:53:02.367Z,10.25
2022-10-26T00:53:12.287Z,10.28
2022-10-26T00:53:22.173Z,10.29
2022-10-26T00:53:32.197Z,10.34
2022-10-26T00:53:42.197Z,10.34
2022-10-26T00:53:52.245Z,10.35
2022-10-26T00:54:02.193Z,10.38
2022-10-26T00:54:12.213Z,10.42
2022-10-26T00:54:22.237Z,10.39
2022-10-26T00:54:32.189Z,10.46
2022-10-26T00:54:42.182Z,10.49
2022-10-26T00:54:52.249Z,10.51
2022-10-26T00:55:02.276Z,10.52
2022-10-26T00:55:12.193Z,10.54
2022-10-26T00:55:22.234Z,10.54
2022-10-26T00:55:32.205Z,10.57
2022-10-26T00:55:42.247Z,10.58
2022-10-26T00:55:52.295Z,10.60
2022-10-26T00:56:02.243Z,10.62
2022-10-26T00:56:12.235Z,10.63
2022-10-26T00:56:22.273Z,10.65
2022-10-26T00:56:32.301Z,10.66
2022-10-26T00:56:42.239Z,10.65
2022-10-26T00:56:52.288Z,10.68
2022-10-26T00:57:02.213Z,10.69
2022-10-26T00:57:12.225Z,10.73
2022-10-26T00:57:22.228Z,10.70
2022-10-26T00:57:32.217Z,10.72
2022-10-26T00:57:42.304Z,10.72
2022-10-26T00:57:52.185Z,10.78
2022-10-26T00:58:02.273Z,10.78
2022-10-26T00:58:12.272Z,10.80
2022-10-26T00:58:22.265Z,10.81
2022-10-26T00:58:32.209Z,10.83
2022-10-26T00:58:42.226Z,10.83
2022-10-26T00:58:52.176Z,10.84
2022-10-26T00:59:02.266Z,10.86
2022-10-26T00:59:12.195Z,10.87
2022-10-26T00:59:22.216Z,10.88
2022-10-26T00:59:32.249Z,10.90
2022-10-26T00:59:42.176Z,10.93
2022-10-26T00:59:52.299Z,10.95
2022-10-26T01:00:02.198Z,10.94
2022-10-26T01:00:12.181Z,10.98
2022-10-26T01:00:22.201Z,10.98
2022-10-26T01:00:32.210Z,10.99
2022-10-26T01:00:42.177Z,11.01
2022-10-26T01:00:52.213Z,11.01
2022-10-26T01:01:02.239Z,11.02
2022-10-26T01:01:12.246Z,11.03
2022-10-26T01:01:22.375Z,11.03
2022-10-26T01:01:32.222Z,11.03
2022-10-26T01:01:42.327Z,11.05
2022-10-26T01:01:52.243Z,11.08
2022-10-26T01:02:02.281Z,11.06
2022-10-26T01:02:12.309Z,11.09
2022-10-26T01:02:22.210Z,11.09
2022-10-26T01:02:32.215Z,11.13
2022-10-26T01:02:42.231Z,11.13
2022-10-26T01:02:52.350Z,11.13
2022-10-26T01:03:02.235Z,11.16
2022-10-26T01:03:12.259Z,11.16
2022-10-26T01:03:22.269Z,11.13
2022-10-26T01:03:32.329Z,11.17
2022-10-26T01:03:42.346Z,11.17
2022-10-26T01:03:52.248Z,11.19
2022-10-26T01:04:02.287Z,11.19
2022-10-26T01:04:12.313Z,11.20
2022-10-26T01:04:22.219Z,11.21
2022-10-26T01:04:32.288Z,11.21
2022-10-26T01:04:42.204Z,11.21
2022-10-26T01:04:52.238Z,11.21
2022-10-26T01:05:02.249Z,11.21
2022-10-26T01:05:12.207Z,11.21
2022-10-26T01:05:22.269Z,11.23
2022-10-26T01:05:32.290Z,11.24
2022-10-26T01:05:42.282Z,11.24
2022-10-26T01:05:52.204Z,11.26
2022-10-26T01:06:02.252Z,11.26
2022-10-26T01:06:12.223Z,11.26
2022-10-26T01:06:22.185Z,11.26
2022-10-26T01:06:32.271Z,11.27
2022-10-26T01:06:42.233Z,11.27
2022-10-26T01:06:52.171Z,11.28
2022-10-26T01:07:02.288Z,11.30
2022-10-26T01:07:12.318Z,11.30
2022-10-26T01:07:32.226Z,11.31
2022-10-26T01:07:42.206Z,11.31
2022-10-26T01:07:52.431Z,11.33
2022-10-26T01:08:02.328Z,11.33
2022-10-26T01:08:12.285Z,11.33
2022-10-26T01:08:22.171Z,11.33
2022-10-26T01:08:32.292Z,11.35
2022-10-26T01:08:42.275Z,11.35
2022-10-26T01:08:52.195Z,11.38
2022-10-26T01:09:02.266Z,11.36
2022-10-26T01:09:12.180Z,11.38
2022-10-26T01:09:22.273Z,11.38
2022-10-26T01:09:32.290Z,11.36
2022-10-26T01:09:42.286Z,11.38
2022-10-26T01:09:52.264Z,11.39
2022-10-26T01:10:02.195Z,11.38
2022-10-26T01:10:12.254Z,11.39
2022-10-26T01:10:22.250Z,11.41
2022-10-26T01:10:32.256Z,11.41
2022-10-26T01:10:42.318Z,11.41
2022-10-26T01:10:52.194Z,11.41
2022-10-26T01:11:02.183Z,11.41
2022-10-26T01:11:12.220Z,11.42
2022-10-26T01:11:22.198Z,11.42
2022-10-26T01:11:32.248Z,11.41
2022-10-26T01:11:42.194Z,11.44
2022-10-26T01:11:52.218Z,11.44
2022-10-26T01:12:02.252Z,11.44
2022-10-26T01:12:12.254Z,11.46
2022-10-26T01:12:22.277Z,11.46
2022-10-26T01:12:32.205Z,11.46
2022-10-26T01:12:42.264Z,11.49
2022-10-26T01:12:52.192Z,11.48
2022-10-26T01:13:02.214Z,11.48
2022-10-26T01:13:12.244Z,11.48
2022-10-26T01:13:22.171Z,11.49
2022-10-26T01:13:32.293Z,11.48
2022-10-26T01:13:42.263Z,11.49
2022-10-26T01:13:52.214Z,11.51
2022-10-26T01:14:02.286Z,11.51
2022-10-26T01:14:12.178Z,11.51
2022-10-26T01:14:22.260Z,11.53
2022-10-26T01:14:32.291Z,11.53
2022-10-26T01:14:42.258Z,11.53
2022-10-26T01:14:52.173Z,11.53
2022-10-26T01:15:02.172Z,11.56
2022-10-26T01:15:12.256Z,11.54
2022-10-26T01:15:22.187Z,11.56
2022-10-26T01:15:32.181Z,11.56
2022-10-26T01:15:42.194Z,11.57
2022-10-26T01:15:52.285Z,11.57
2022-10-26T01:16:02.197Z,11.57
2022-10-26T01:16:12.267Z,11.57
2022-10-26T01:16:22.304Z,11.59
2022-10-26T01:16:32.300Z,11.60
2022-10-26T01:16:42.864Z,11.59
2022-10-26T01:16:52.307Z,11.62
2022-10-26T01:17:12.179Z,11.62
2022-10-26T01:17:22.209Z,11.62
2022-10-26T01:17:32.257Z,11.63
2022-10-26T01:17:42.282Z,11.63
2022-10-26T01:17:52.310Z,11.63
2022-10-26T01:18:02.234Z,11.63
2022-10-26T01:18:12.277Z,11.66
2022-10-26T01:18:22.264Z,11.64
2022-10-26T01:18:32.191Z,11.66
2022-10-26T01:18:42.249Z,11.66
2022-10-26T01:18:52.241Z,11.66
2022-10-26T01:19:02.268Z,11.66
2022-10-26T01:19:12.310Z,11.66
2022-10-26T01:19:22.170Z,11.66
2022-10-26T01:19:32.280Z,11.67
2022-10-26T01:19:42.181Z,11.67
2022-10-26T01:19:52.252Z,11.67
2022-10-26T01:20:02.244Z,11.67
2022-10-26T01:20:12.273Z,11.67
2022-10-26T01:20:22.211Z,11.70
2022-10-26T01:20:32.241Z,11.69
2022-10-26T01:20:42.295Z,11.67
2022-10-26T01:20:52.284Z,11.67
2022-10-26T01:21:02.222Z,11.69
2022-10-26T01:21:12.235Z,11.67
2022-10-26T01:21:22.180Z,11.67
2022-10-26T01:21:32.171Z,11.69
2022-10-26T01:21:42.209Z,11.69
2022-10-26T01:21:52.176Z,11.69
2022-10-26T01:22:02.203Z,11.69
2022-10-26T01:22:12.239Z,11.67
2022-10-26T01:22:22.214Z,11.69
2022-10-26T01:22:32.287Z,11.69
2022-10-26T01:22:42.307Z,11.70
2022-10-26T01:22:52.254Z,11.69
2022-10-26T01:23:02.281Z,11.70
2022-10-26T01:23:12.225Z,11.69
2022-10-26T01:23:22.173Z,11.69
2022-10-26T01:23:32.240Z,11.70
2022-10-26T01:23:42.212Z,11.70
2022-10-26T01:23:52.193Z,11.69
2022-10-26T01:24:02.267Z,11.70
2022-10-26T01:24:12.260Z,11.70
2022-10-26T01:24:22.239Z,11.70
2022-10-26T01:24:32.204Z,11.67
2022-10-26T01:24:42.256Z,11.70
2022-10-26T01:24:52.275Z,11.69
2022-10-26T01:25:02.244Z,11.70
2022-10-26T01:25:12.294Z,11.70
2022-10-26T01:25:22.215Z,11.70
2022-10-26T01:25:32.241Z,11.69
2022-10-26T01:25:42.276Z,11.72
2022-10-26T01:25:52.264Z,11.72
2022-10-26T01:26:02.261Z,11.70
2022-10-26T01:26:12.294Z,11.69
2022-10-26T01:26:22.212Z,11.70
2022-10-26T01:26:32.295Z,11.70
2022-10-26T01:26:42.431Z,11.72
2022-10-26T01:27:02.220Z,11.70
2022-10-26T01:27:12.303Z,11.70
2022-10-26T01:27:22.299Z,11.69
2022-10-26T01:27:32.205Z,11.69
2022-10-26T01:27:42.213Z,11.69
2022-10-26T01:27:52.396Z,11.69
2022-10-26T01:28:02.210Z,11.69
2022-10-26T01:28:12.220Z,11.69
2022-10-26T01:28:22.196Z,11.67
2022-10-26T01:28:32.242Z,11.69
2022-10-26T01:28:42.273Z,11.69
2022-10-26T01:28:52.294Z,11.69
2022-10-26T01:29:02.177Z,11.69
2022-10-26T01:29:12.288Z,11.69
2022-10-26T01:29:22.265Z,11.69
2022-10-26T01:29:32.273Z,11.69
2022-10-26T01:29:42.280Z,11.69
2022-10-26T01:29:52.285Z,11.70
2022-10-26T01:30:02.231Z,11.69
2022-10-26T01:30:12.200Z,11.69
2022-10-26T01:30:22.220Z,11.70
2022-10-26T01:30:32.200Z,11.69
2022-10-26T01:30:42.258Z,11.69
2022-10-26T01:30:52.270Z,11.70
2022-10-26T01:31:02.268Z,11.69
2022-10-26T01:31:12.270Z,11.69
2022-10-26T01:31:22.281Z,11.70
2022-10-26T01:31:32.309Z,11.69
2022-10-26T01:31:42.172Z,11.69
2022-10-26T01:31:52.227Z,11.69
2022-10-26T01:32:02.237Z,11.70
2022-10-26T01:32:12.206Z,11.69
2022-10-26T01:32:22.230Z,11.70
2022-10-26T01:32:32.277Z,11.69
2022-10-26T01:32:42.288Z,11.69
2022-10-26T01:32:52.186Z,11.69
2022-10-26T01:33:02.186Z,11.69
2022-10-26T01:33:12.210Z,11.69
2022-10-26T01:33:22.176Z,11.70
2022-10-26T01:33:32.238Z,11.70
2022-10-26T01:33:42.225Z,11.69
2022-10-26T01:33:52.228Z,11.69
2022-10-26T01:34:02.237Z,11.70
2022-10-26T01:34:12.281Z,11.67
2022-10-26T01:34:22.221Z,11.69
2022-10-26T01:34:32.234Z,11.69
2022-10-26T01:34:42.260Z,11.69
2022-10-26T01:34:52.200Z,11.70
2022-10-26T01:35:02.250Z,11.69
2022-10-26T01:35:12.174Z,11.69
2022-10-26T01:35:22.217Z,11.70
2022-10-26T01:35:32.209Z,11.69
2022-10-26T01:35:42.274Z,11.69
2022-10-26T01:35:52.241Z,11.69
2022-10-26T01:36:02.214Z,11.69
2022-10-26T01:36:12.226Z,11.70
2022-10-26T01:36:22.303Z,11.70
2022-10-26T01:36:42.341Z,11.69
2022-10-26T01:36:52.246Z,11.69
2022-10-26T01:37:02.192Z,11.69
2022-10-26T01:37:12.191Z,11.70
2022-10-26T01:37:22.262Z,11.69
2022-10-26T01:37:32.290Z,11.69
2022-10-26T01:37:42.187Z,11.69
2022-10-26T01:37:52.362Z,11.67
2022-10-26T01:38:02.185Z,11.69
2022-10-26T01:38:12.213Z,11.66
2022-10-26T01:38:22.211Z,11.69
2022-10-26T01:38:32.261Z,11.67
2022-10-26T01:38:42.194Z,11.67
2022-10-26T01:38:52.317Z,11.67
2022-10-26T01:39:02.190Z,11.67
2022-10-26T01:39:12.286Z,11.67
2022-10-26T01:39:22.239Z,11.67
2022-10-26T01:39:32.211Z,11.66
2022-10-26T01:39:42.253Z,11.67
2022-10-26T01:39:52.267Z,11.67
2022-10-26T01:40:02.198Z,11.67
2022-10-26T01:40:12.296Z,11.67
2022-10-26T01:40:22.295Z,11.67
2022-10-26T01:40:32.201Z,11.67
2022-10-26T01:40:42.201Z,11.67
2022-10-26T01:40:52.300Z,11.67
2022-10-26T01:41:02.189Z,11.67
2022-10-26T01:41:12.199Z,11.67
2022-10-26T01:41:22.209Z,11.67
2022-10-26T01:41:32.314Z,11.67
2022-10-26T01:41:42.343Z,11.69
2022-10-26T01:41:52.306Z,11.69
2022-10-26T01:42:02.234Z,11.69
2022-10-26T01:42:12.267Z,11.69
2022-10-26T01:42:22.291Z,11.69
2022-10-26T01:42:32.310Z,11.69
2022-10-26T01:42:42.295Z,11.67
2022-10-26T01:42:52.201Z,11.70
2022-10-26T01:43:02.202Z,11.69
2022-10-26T01:43:12.200Z,11.69
2022-10-26T01:43:22.278Z,11.69
2022-10-26T01:43:32.261Z,11.69
2022-10-26T01:43:42.170Z,11.69
2022-10-26T01:43:52.264Z,11.70
2022-10-26T01:44:02.193Z,11.70
2022-10-26T01:44:12.189Z,11.70
2022-10-26T01:44:22.245Z,11.70
2022-10-26T01:44:32.287Z,11.70
2022-10-26T01:44:42.207Z,11.70
2022-10-26T01:44:52.196Z,11.70
2022-10-26T01:45:02.225Z,11.72
2022-10-26T01:45:12.215Z,11.70
2022-10-26T01:45:22.247Z,11.70
2022-10-26T01:45:32.285Z,11.69
2022-10-26T01:45:42.289Z,11.70
2022-10-26T01:45:52.263Z,11.72
2022-10-26T01:46:02.246Z,11.70
2022-10-26T01:46:12.229Z,11.70
2022-10-26T01:46:22.182Z,11.70
2022-10-26T01:46:32.182Z,11.70
2022-10-26T01:46:42.270Z,11.69
2022-10-26T01:46:52.291Z,11.70
2022-10-26T01:47:02.303Z,11.69
2022-10-26T01:47:12.210Z,11.72
2022-10-26T01:47:22.198Z,11.72
2022-10-26T01:47:32.192Z,11.69
2022-10-26T01:47:42.200Z,11.70
2022-10-26T01:47:52.413Z,11.72
2022-10-26T01:48:02.325Z,11.70
2022-10-26T01:48:12.256Z,11.70
2022-10-26T01:48:22.205Z,11.72
2022-10-26T01:48:32.260Z,11.72
2022-10-26T01:48:42.206Z,11.70
2022-10-26T01:48:52.225Z,11.72
2022-10-26T01:49:02.238Z,11.72
2022-10-26T01:49:12.177Z,11.72
2022-10-26T01:49:22.186Z,11.70
2022-10-26T01:49:32.212Z,11.72
2022-10-26T01:49:42.173Z,11.70
2022-10-26T01:49:52.311Z,11.70
2022-10-26T01:50:02.298Z,11.70
2022-10-26T01:50:12.213Z,11.70
2022-10-26T01:50:22.219Z,11.70
2022-10-26T01:50:32.201Z,11.69
2022-10-26T01:50:42.238Z,11.70
2022-10-26T01:50:52.176Z,11.70
2022-10-26T01:51:02.244Z,11.70
2022-10-26T01:51:12.267Z,11.74
2022-10-26T01:51:22.307Z,11.72
2022-10-26T01:51:32.242Z,11.70
2022-10-26T01:51:42.250Z,11.70
2022-10-26T01:51:52.257Z,11.70
2022-10-26T01:52:02.227Z,11.70
2022-10-26T01:52:12.274Z,11.70
2022-10-26T01:52:22.280Z,11.70
2022-10-26T01:52:32.194Z,11.70
2022-10-26T01:52:42.294Z,11.69
2022-10-26T01:52:52.250Z,11.69
2022-10-26T01:53:02.295Z,11.70
2022-10-26T01:53:12.258Z,11.70
2022-10-26T01:53:22.253Z,11.70
2022-10-26T01:53:32.274Z,11.69
2022-10-26T01:53:42.241Z,11.69
2022-10-26T01:53:52.197Z,11.70
2022-10-26T01:54:02.282Z,11.70
2022-10-26T01:54:12.287Z,11.70
2022-10-26T01:54:22.227Z,11.72
2022-10-26T01:54:32.289Z,11.70
2022-10-26T01:54:42.187Z,11.70
2022-10-26T01:54:52.237Z,11.70
2022-10-26T01:55:02.266Z,11.70
2022-10-26T01:55:12.292Z,11.70
2022-10-26T01:55:22.276Z,11.70
2022-10-26T01:55:32.263Z,11.72
2022-10-26T01:55:42.251Z,11.72
2022-10-26T01:55:52.176Z,11.72
2022-10-26T01:56:02.226Z,11.72
2022-10-26T01:56:12.300Z,11.72
2022-10-26T01:56:22.291Z,11.74
2022-10-26T01:56:32.244Z,11.70
2022-10-26T01:56:42.267Z,11.74
2022-10-26T01:56:52.263Z,11.72
2022-10-26T01:57:02.306Z,11.72
2022-10-26T01:57:12.274Z,11.74
2022-10-26T01:57:22.225Z,11.72
2022-10-26T01:57:32.220Z,11.72
2022-10-26T01:57:42.285Z,11.74
2022-10-26T01:57:52.199Z,11.72
2022-10-26T01:58:02.181Z,11.72
2022-10-26T01:58:12.186Z,11.72
2022-10-26T01:58:22.226Z,11.72
2022-10-26T01:58:32.178Z,11.72
2022-10-26T01:58:42.267Z,11.72
2022-10-26T01:58:52.291Z,11.72
2022-10-26T01:59:02.301Z,11.72
2022-10-26T01:59:12.226Z,11.72
2022-10-26T01:59:22.232Z,11.72
2022-10-26T01:59:32.189Z,11.70
2022-10-26T01:59:42.198Z,11.70
2022-10-26T01:59:52.296Z,11.70
2022-10-26T02:00:02.299Z,11.69
2022-10-26T02:00:12.225Z,11.69
2022-10-26T02:00:22.177Z,11.70
2022-10-26T02:00:32.268Z,11.70
2022-10-26T02:00:42.262Z,11.70
2022-10-26T02:00:52.277Z,11.70
2022-10-26T02:01:02.176Z,11.72
2022-10-26T02:01:12.307Z,11.72
2022-10-26T02:01:22.358Z,11.70
2022-10-26T02:01:32.364Z,11.70
2022-10-26T02:01:42.412Z,11.72
2022-10-26T02:01:52.251Z,11.72
2022-10-26T02:02:02.184Z,11.72
2022-10-26T02:02:12.221Z,11.72
2022-10-26T02:02:22.262Z,11.70
2022-10-26T02:02:32.212Z,11.70
2022-10-26T02:02:42.231Z,11.72
2022-10-26T02:02:52.190Z,11.70
2022-10-26T02:03:02.192Z,11.72
2022-10-26T02:03:12.210Z,11.72
2022-10-26T02:03:22.308Z,11.70
2022-10-26T02:03:32.325Z,11.70
2022-10-26T02:03:42.366Z,11.72
2022-10-26T02:03:52.424Z,11.72
2022-10-26T02:04:02.402Z,11.72
2022-10-26T02:04:12.276Z,11.70
2022-10-26T02:04:22.258Z,11.72
2022-10-26T02:04:32.262Z,11.72
2022-10-26T02:04:42.200Z,11.72
2022-10-26T02:04:52.250Z,11.72
2022-10-26T02:05:02.276Z,11.70
2022-10-26T02:05:12.281Z,11.70
2022-10-26T02:05:22.221Z,11.72
2022-10-26T02:05:32.183Z,11.72
2022-10-26T02:05:42.193Z,11.72
2022-10-26T02:05:52.204Z,11.72
2022-10-26T02:06:02.256Z,11.70
2022-10-26T02:06:12.201Z,11.72
2022-10-26T02:06:22.276Z,11.72
2022-10-26T02:06:32.173Z,11.72
2022-10-26T02:06:42.296Z,11.72
2022-10-26T02:06:52.226Z,11.74
2022-10-26T02:07:02.227Z,11.72
2022-10-26T02:07:12.219Z,11.72
2022-10-26T02:07:22.346Z,11.72
2022-10-26T02:07:32.266Z,11.72
2022-10-26T02:07:42.190Z,11.74
2022-10-26T02:07:52.484Z,11.72
2022-10-26T02:08:02.219Z,11.72
2022-10-26T02:08:12.219Z,11.72
2022-10-26T02:08:22.265Z,11.74
2022-10-26T02:08:32.211Z,11.69
2022-10-26T02:08:42.201Z,11.72
2022-10-26T02:08:52.191Z,11.72
2022-10-26T02:09:02.296Z,11.74
2022-10-26T02:09:12.185Z,11.74
2022-10-26T02:09:22.250Z,11.74
2022-10-26T02:09:32.203Z,11.74
2022-10-26T02:09:42.247Z,11.74
2022-10-26T02:09:52.178Z,11.74
2022-10-26T02:10:02.211Z,11.74
2022-10-26T02:10:12.202Z,11.75
2022-10-26T02:10:22.183Z,11.75